createdAt,value
2019-06-08T00:00:15.268Z,99079.54
2019-06-08T00:02:42.960Z,99080.27
2019-06-08T00:05:12.601Z,99084.68
2019-06-08T00:07:39.660Z,99080.62
2019-06-08T00:10:06.873Z,99073.56
2019-06-08T00:12:33.645Z,99078.86
2019-06-08T00:15:00.477Z,99080.02
2019-06-08T00:17:37.731Z,99077.50
2019-06-08T00:19:55.783Z,99085.55
2019-06-08T00:22:22.438Z,99081.59
2019-06-08T00:24:49.181Z,99084.77
2019-06-08T00:27:16.035Z,99080.92
2019-06-08T00:29:42.696Z,99090.32
2019-06-08T00:32:09.361Z,99088.09
2019-06-08T00:34:35.977Z,99087.13
2019-06-08T00:37:02.880Z,99078.66
2019-06-08T00:39:29.474Z,99073.27
2019-06-08T00:41:56.071Z,99073.50
2019-06-08T00:44:26.293Z,99077.03
2019-06-08T00:46:52.903Z,99076.20
2019-06-08T00:49:22.614Z,99069.67
2019-06-08T00:51:49.552Z,99072.04
2019-06-08T00:54:17.348Z,99079.73
2019-06-08T00:56:44.227Z,99074.25
2019-06-08T00:59:10.987Z,99077.45
2019-06-08T01:01:37.707Z,99083.33
2019-06-08T01:04:04.262Z,99085.48
2019-06-08T01:06:30.910Z,99086.20
2019-06-08T01:08:58.372Z,99094.45
2019-06-08T01:11:25.220Z,99096.98
2019-06-08T01:13:52.273Z,99103.16
2019-06-08T01:16:18.974Z,99099.66
2019-06-08T01:18:45.723Z,99101.17
2019-06-08T01:21:12.284Z,99103.01
2019-06-08T01:23:39.000Z,99111.18
2019-06-08T01:26:05.563Z,99108.39
2019-06-08T01:28:32.295Z,99104.36
2019-06-08T01:30:59.109Z,99100.03
2019-06-08T01:33:26.567Z,99108.95
2019-06-08T01:35:53.442Z,99111.58
2019-06-08T01:38:21.046Z,99106.27
2019-06-08T01:40:48.191Z,99111.16
2019-06-08T01:43:14.853Z,99106.74
2019-06-08T01:45:41.602Z,99105.23
2019-06-08T01:48:19.346Z,99111.70
2019-06-08T01:50:36.998Z,99105.77
2019-06-08T01:53:03.843Z,99105.26
2019-06-08T01:55:31.172Z,99109.89
2019-06-08T01:57:58.048Z,99110.44
2019-06-08T02:00:32.556Z,99109.42
2019-06-08T02:02:55.237Z,99109.42
2019-06-08T02:05:22.238Z,99104.84
2019-06-08T02:07:49.031Z,99105.13
2019-06-08T02:10:16.827Z,99111.58
2019-06-08T02:12:43.549Z,99108.08
2019-06-08T02:15:10.870Z,99108.59
2019-06-08T02:17:37.567Z,99108.23
2019-06-08T02:20:06.591Z,99100.08
2019-06-08T02:22:33.431Z,99104.50
2019-06-08T02:25:00.070Z,99109.33
2019-06-08T02:27:27.253Z,99112.05
2019-06-08T02:29:53.991Z,99112.17
2019-06-08T02:32:20.730Z,99114.03
2019-06-08T02:34:47.434Z,99116.63
2019-06-08T02:37:13.925Z,99122.72
2019-06-08T02:39:40.797Z,99120.09
2019-06-08T02:42:07.561Z,99125.24
2019-06-08T02:44:34.487Z,99124.84
2019-06-08T02:47:01.395Z,99123.22
2019-06-08T02:49:29.090Z,99129.67
2019-06-08T02:51:56.247Z,99127.56
2019-06-08T02:54:22.952Z,99135.33
2019-06-08T02:56:52.958Z,99132.27
2019-06-08T02:59:21.484Z,99133.17
2019-06-08T03:01:49.966Z,99128.70
2019-06-08T03:04:17.989Z,99141.81
2019-06-08T03:06:45.537Z,99140.47
2019-06-08T03:09:12.174Z,99140.08
2019-06-08T03:14:39.613Z,99146.09
2019-06-08T03:17:07.106Z,99151.00
2019-06-08T03:19:35.543Z,99155.37
2019-06-08T03:22:02.383Z,99146.26
2019-06-08T03:24:29.189Z,99147.53
2019-06-08T03:26:55.913Z,99165.09
2019-06-08T03:29:22.545Z,99166.38
2019-06-08T03:31:55.926Z,99162.09
2019-06-08T03:34:18.043Z,99152.98
2019-06-08T03:36:54.896Z,99158.52
2019-06-08T03:39:13.725Z,99156.52
2019-06-08T03:41:42.128Z,99157.36
2019-06-08T03:44:08.811Z,99155.75
2019-06-08T03:46:36.389Z,99156.47
2019-06-08T03:49:03.388Z,99160.84
2019-06-08T03:51:34.888Z,99162.31
2019-06-08T03:53:58.871Z,99160.26
2019-06-08T03:56:25.433Z,99167.22
2019-06-08T03:58:52.062Z,99161.05
2019-06-08T04:01:18.803Z,99163.46
2019-06-08T04:03:46.243Z,99170.83
2019-06-08T04:06:13.128Z,99181.35
2019-06-08T04:08:40.827Z,99185.65
2019-06-08T04:11:08.194Z,99183.26
2019-06-08T04:13:34.842Z,99187.14
2019-06-08T04:16:01.423Z,99184.83
2019-06-08T04:18:28.018Z,99179.92
2019-06-08T04:20:54.864Z,99185.36
2019-06-08T04:23:22.988Z,99191.01
2019-06-08T04:25:50.671Z,99194.16
2019-06-08T04:28:17.533Z,99198.50
2019-06-08T04:30:45.375Z,99202.88
2019-06-08T04:33:12.856Z,99205.28
2019-06-08T04:35:40.178Z,99203.64
2019-06-08T04:38:07.638Z,99202.86
2019-06-08T04:40:34.289Z,99201.00
2019-06-08T04:43:00.889Z,99205.80
2019-06-08T04:45:27.690Z,99206.85
2019-06-08T04:47:54.219Z,99209.58
2019-06-08T04:50:23.727Z,99214.25
2019-06-08T04:52:49.886Z,99209.88
2019-06-08T04:55:16.935Z,99210.69
2019-06-08T04:57:45.405Z,99212.22
2019-06-08T05:00:13.718Z,99212.58
2019-06-08T05:02:42.234Z,99217.67
2019-06-08T05:05:09.680Z,99216.66
2019-06-08T05:07:36.264Z,99217.91
2019-06-08T05:10:08.202Z,99214.48
2019-06-08T05:12:34.784Z,99220.11
2019-06-08T05:15:01.618Z,99216.50
2019-06-08T05:17:28.148Z,99219.00
2019-06-08T05:19:54.697Z,99230.86
2019-06-08T05:22:21.275Z,99228.77
2019-06-08T05:24:49.858Z,99230.67
2019-06-08T05:27:16.877Z,99232.44
2019-06-08T05:29:43.492Z,99235.78
2019-06-08T05:32:10.047Z,99244.70
2019-06-08T05:34:36.594Z,99246.38
2019-06-08T05:37:03.433Z,99241.27
2019-06-08T05:39:30.054Z,99239.81
2019-06-08T05:41:56.774Z,99243.33
2019-06-08T05:44:23.365Z,99245.19
2019-06-08T05:46:50.459Z,99246.64
2019-06-08T05:49:16.995Z,99250.27
2019-06-08T05:51:43.793Z,99253.11
2019-06-08T05:54:10.450Z,99262.02
2019-06-08T05:56:39.733Z,99266.98
2019-06-08T05:59:07.639Z,99263.75
2019-06-08T06:01:34.131Z,99261.94
2019-06-08T06:04:00.815Z,99261.25
2019-06-08T06:06:27.457Z,99264.95
2019-06-08T06:08:54.189Z,99268.40
2019-06-08T06:11:20.737Z,99272.73
2019-06-08T06:13:47.493Z,99274.14
2019-06-08T06:16:13.999Z,99272.95
2019-06-08T06:18:40.987Z,99272.95
2019-06-08T06:21:11.753Z,99279.98
2019-06-08T06:23:36.289Z,99270.47
2019-06-08T06:26:03.102Z,99280.25
2019-06-08T06:28:29.723Z,99275.09
2019-06-08T06:30:56.197Z,99265.33
2019-06-08T06:33:22.664Z,99275.08
2019-06-08T06:35:49.959Z,99276.20
2019-06-08T06:38:16.924Z,99274.67
2019-06-08T06:40:43.990Z,99271.19
2019-06-08T06:43:10.817Z,99273.11
2019-06-08T06:45:37.630Z,99277.34
2019-06-08T06:48:04.380Z,99270.98
2019-06-08T06:50:32.859Z,99268.87
2019-06-08T06:53:00.182Z,99268.87
2019-06-08T06:55:26.822Z,99279.47
2019-06-08T06:57:53.643Z,99278.42
2019-06-08T07:00:31.568Z,99288.02
2019-06-08T07:02:59.802Z,99286.62
2019-06-08T07:05:26.468Z,99286.88
2019-06-08T07:07:54.410Z,99293.30
2019-06-08T07:10:21.630Z,99292.75
2019-06-08T07:12:49.111Z,99302.07
2019-06-08T07:15:25.908Z,99293.36
2019-06-08T07:17:53.547Z,99292.75
2019-06-08T07:20:21.112Z,99291.91
2019-06-08T07:22:48.117Z,99292.80
2019-06-08T07:25:15.141Z,99306.43
2019-06-08T07:27:42.005Z,99297.56
2019-06-08T07:30:08.968Z,99297.72
2019-06-08T07:32:35.768Z,99295.07
2019-06-08T07:35:05.651Z,99301.30
2019-06-08T07:37:32.542Z,99302.44
2019-06-08T07:40:00.223Z,99302.28
2019-06-08T07:42:27.207Z,99295.09
2019-06-08T07:44:54.825Z,99297.77
2019-06-08T07:47:21.769Z,99303.49
2019-06-08T07:49:49.325Z,99302.64
2019-06-08T07:52:16.030Z,99296.96
2019-06-08T07:54:42.502Z,99307.06
2019-06-08T07:57:09.208Z,99308.39
2019-06-08T07:59:35.851Z,99309.28
2019-06-08T08:02:02.602Z,99301.27
2019-06-08T08:04:32.346Z,99299.48
2019-06-08T08:06:58.911Z,99305.11
2019-06-08T08:09:25.571Z,99303.84
2019-06-08T08:11:55.243Z,99305.49
2019-06-08T08:14:21.856Z,99303.89
2019-06-08T08:16:48.959Z,99302.91
2019-06-08T08:19:15.702Z,99300.22
2019-06-08T08:21:45.129Z,99309.08
2019-06-08T08:24:11.689Z,99304.98
2019-06-08T08:26:39.149Z,99308.55
2019-06-08T08:29:08.354Z,99305.02
2019-06-08T08:31:34.534Z,99309.95
2019-06-08T08:34:05.629Z,99309.95
2019-06-08T08:36:33.146Z,99312.98
2019-06-08T08:39:00.615Z,99312.17
2019-06-08T08:41:27.944Z,99315.73
2019-06-08T08:43:58.395Z,99309.69
2019-06-08T08:46:23.912Z,99315.20
2019-06-08T08:48:51.366Z,99316.26
2019-06-08T08:51:20.664Z,99306.39
2019-06-08T08:53:48.193Z,99314.89
2019-06-08T08:56:18.173Z,99314.09
2019-06-08T08:58:44.606Z,99308.83
2019-06-08T09:01:11.126Z,99306.58
2019-06-08T09:03:39.608Z,99310.08
2019-06-08T09:06:08.519Z,99311.50
2019-06-08T09:08:34.557Z,99308.58
2019-06-08T09:11:03.592Z,99308.26
2019-06-08T09:13:31.536Z,99318.55
2019-06-08T09:16:00.742Z,99312.04
2019-06-08T09:18:28.586Z,99314.16
2019-06-08T09:20:58.255Z,99317.71
2019-06-08T09:23:23.652Z,99316.58
2019-06-08T09:25:53.594Z,99317.38
2019-06-08T09:28:19.029Z,99312.67
2019-06-08T09:30:48.242Z,99318.49
2019-06-08T09:33:14.188Z,99318.25
2019-06-08T09:35:40.821Z,99318.34
2019-06-08T09:38:08.578Z,99317.75
2019-06-08T09:40:38.400Z,99322.91
2019-06-08T09:43:12.204Z,99322.86
2019-06-08T09:45:33.441Z,99325.88
2019-06-08T09:48:02.601Z,99329.64
2019-06-08T09:50:28.538Z,99323.87
2019-06-08T09:53:10.045Z,99327.82
2019-06-08T09:55:23.609Z,99322.84
2019-06-08T09:57:50.207Z,99326.94
2019-06-08T10:00:21.331Z,99319.23
2019-06-08T10:02:47.879Z,99334.59
2019-06-08T10:05:14.751Z,99325.82
2019-06-08T10:07:41.481Z,99326.05
2019-06-08T10:10:09.814Z,99326.84
2019-06-08T10:12:37.821Z,99326.00
2019-06-08T10:15:08.034Z,99328.28
2019-06-08T10:17:34.637Z,99325.61
2019-06-08T10:20:03.419Z,99332.77
2019-06-08T10:22:29.818Z,99323.88
2019-06-08T10:24:58.050Z,99322.67
2019-06-08T10:27:24.844Z,99324.84
2019-06-08T10:29:51.516Z,99324.88
2019-06-08T10:32:19.928Z,99323.41
2019-06-08T10:34:48.139Z,99329.80
2019-06-08T10:37:15.068Z,99322.97
2019-06-08T10:39:41.969Z,99322.67
2019-06-08T10:42:10.112Z,99330.97
2019-06-08T10:44:38.172Z,99323.94
2019-06-08T10:47:06.754Z,99322.58
2019-06-08T10:49:33.785Z,99319.91
2019-06-08T10:52:02.158Z,99319.67
2019-06-08T10:54:28.760Z,99324.54
2019-06-08T10:56:55.372Z,99319.92
2019-06-08T10:59:21.948Z,99317.75
2019-06-08T11:01:48.673Z,99325.33
2019-06-08T11:04:15.405Z,99317.54
2019-06-08T11:06:42.053Z,99313.33
2019-06-08T11:09:14.337Z,99319.53
2019-06-08T11:11:38.379Z,99312.94
2019-06-08T11:14:07.934Z,99307.66
2019-06-08T11:16:34.641Z,99308.66
2019-06-08T11:19:03.002Z,99306.81
2019-06-08T11:21:29.921Z,99317.04
2019-06-08T11:24:10.418Z,99321.95
2019-06-08T11:26:25.345Z,99320.11
2019-06-08T11:28:52.244Z,99318.80
2019-06-08T11:31:19.868Z,99313.30
2019-06-08T11:33:48.832Z,99318.23
2019-06-08T11:36:15.488Z,99313.81
2019-06-08T11:38:44.418Z,99312.73
2019-06-08T11:41:13.529Z,99318.70
2019-06-08T11:43:39.967Z,99316.45
2019-06-08T11:46:06.763Z,99316.03
2019-06-08T11:48:33.593Z,99312.61
2019-06-08T11:51:00.600Z,99315.97
2019-06-08T11:53:28.829Z,99309.72
2019-06-08T11:55:58.600Z,99315.83
2019-06-08T11:58:28.278Z,99315.19
2019-06-08T12:01:01.783Z,99310.75
2019-06-08T12:03:30.589Z,99310.25
2019-06-08T12:05:58.338Z,99314.42
2019-06-08T12:08:28.185Z,99317.70
2019-06-08T12:10:54.208Z,99313.04
2019-06-08T12:13:20.966Z,99307.00
2019-06-08T12:15:48.841Z,99306.22
2019-06-08T12:18:18.147Z,99304.66
2019-06-08T12:20:45.216Z,99308.58
2019-06-08T12:23:12.105Z,99307.92
2019-06-08T12:25:38.709Z,99307.77
2019-06-08T12:28:06.431Z,99310.30
2019-06-08T12:30:33.520Z,99312.09
2019-06-08T12:33:00.195Z,99307.63
2019-06-08T12:35:28.361Z,99312.79
2019-06-08T12:37:57.936Z,99313.09
2019-06-08T12:40:23.721Z,99310.58
2019-06-08T12:42:50.491Z,99300.32
2019-06-08T12:45:19.974Z,99301.83
2019-06-08T12:47:47.882Z,99304.70
2019-06-08T12:50:15.343Z,99310.70
2019-06-08T12:52:43.345Z,99309.09
2019-06-08T12:55:16.450Z,99314.56
2019-06-08T12:57:39.915Z,99321.22
2019-06-08T13:00:08.458Z,99317.09
2019-06-08T13:02:39.336Z,99312.69
2019-06-08T13:05:10.723Z,99320.08
2019-06-08T13:07:38.574Z,99317.00
2019-06-08T13:10:05.884Z,99313.66
2019-06-08T13:12:32.769Z,99310.83
2019-06-08T13:14:59.440Z,99311.85
2019-06-08T13:17:27.987Z,99310.38
2019-06-08T13:19:58.045Z,99313.20
2019-06-08T13:22:28.353Z,99314.58
2019-06-08T13:24:52.972Z,99322.08
2019-06-08T13:27:22.826Z,99325.67
2019-06-08T13:29:48.931Z,99334.08
2019-06-08T13:32:16.569Z,99335.23
2019-06-08T13:34:44.387Z,99335.52
2019-06-08T13:37:12.451Z,99336.05
2019-06-08T13:39:39.150Z,99340.16
2019-06-08T13:42:07.750Z,99340.44
2019-06-08T13:44:34.471Z,99340.12
2019-06-08T13:47:01.001Z,99339.83
2019-06-08T13:49:30.822Z,99343.47
2019-06-08T13:51:58.358Z,99338.75
2019-06-08T13:54:25.347Z,99346.94
2019-06-08T13:56:51.928Z,99339.45
2019-06-08T13:59:23.107Z,99348.40
2019-06-08T14:01:47.825Z,99340.66
2019-06-08T14:04:15.181Z,99343.36
2019-06-08T14:06:42.003Z,99346.63
2019-06-08T14:09:08.967Z,99338.08
2019-06-08T14:11:35.643Z,99352.39
2019-06-08T14:14:02.605Z,99350.88
2019-06-08T14:16:29.891Z,99355.82
2019-06-08T14:18:56.741Z,99358.30
2019-06-08T14:21:34.163Z,99357.50
2019-06-08T14:23:51.869Z,99358.04
2019-06-08T14:26:20.123Z,99358.83
2019-06-08T14:28:50.286Z,99367.36
2019-06-08T14:31:18.677Z,99368.30
2019-06-08T14:33:44.635Z,99375.69
2019-06-08T14:36:11.091Z,99381.08
2019-06-08T14:38:41.794Z,99383.91
2019-06-08T14:41:07.628Z,99390.89
2019-06-08T14:43:34.502Z,99390.95
2019-06-08T14:46:00.973Z,99382.04
2019-06-08T14:48:32.107Z,99386.20
2019-06-08T14:50:58.260Z,99377.20
2019-06-08T14:53:24.681Z,99382.50
2019-06-08T14:56:04.912Z,99381.31
2019-06-08T14:58:25.107Z,99385.07
2019-06-08T15:00:48.255Z,99391.13
2019-06-08T15:03:14.875Z,99387.16
2019-06-08T15:05:44.076Z,99387.19
2019-06-08T15:08:11.821Z,99386.12
2019-06-08T15:10:38.843Z,99377.84
2019-06-08T15:13:07.707Z,99384.37
2019-06-08T15:15:34.497Z,99380.24
2019-06-08T15:18:04.221Z,99390.88
2019-06-08T15:20:30.373Z,99390.84
2019-06-08T15:22:58.895Z,99394.08
2019-06-08T15:25:26.658Z,99400.69
2019-06-08T15:27:54.364Z,99403.66
2019-06-08T15:30:21.668Z,99419.34
2019-06-08T15:32:48.723Z,99430.87
2019-06-08T15:35:18.053Z,99434.10
2019-06-08T15:37:44.152Z,99441.72
2019-06-08T15:40:11.429Z,99441.37
2019-06-08T15:42:38.277Z,99445.67
2019-06-08T15:45:05.255Z,99444.14
2019-06-08T15:47:32.440Z,99448.17
2019-06-08T15:49:59.416Z,99457.94
2019-06-08T15:52:27.155Z,99454.17
2019-06-08T15:54:58.856Z,99456.39
2019-06-08T15:57:24.633Z,99458.69
2019-06-08T15:59:51.501Z,99474.77
2019-06-08T16:02:18.397Z,99486.32
2019-06-08T16:04:45.313Z,99490.76
2019-06-08T16:07:12.123Z,99505.39
2019-06-08T16:09:38.765Z,99507.49
2019-06-08T16:12:06.218Z,99522.39
2019-06-08T16:14:32.881Z,99522.25
2019-06-08T16:16:59.597Z,99532.95
2019-06-08T16:19:27.405Z,99537.06
2019-06-08T16:21:54.314Z,99539.19
2019-06-08T16:24:20.965Z,99540.89
2019-06-08T16:26:53.375Z,99541.15
2019-06-08T16:29:16.564Z,99547.11
2019-06-08T16:31:43.359Z,99556.52
2019-06-08T16:34:10.158Z,99562.64
2019-06-08T16:36:36.786Z,99570.69
2019-06-08T16:39:06.957Z,99568.20
2019-06-08T16:41:33.980Z,99569.82
2019-06-08T16:44:00.707Z,99574.66
2019-06-08T16:46:27.915Z,99576.38
2019-06-08T16:48:54.636Z,99588.70
2019-06-08T16:51:21.118Z,99581.56
2019-06-08T16:53:47.649Z,99589.69
2019-06-08T16:56:14.262Z,99592.39
2019-06-08T16:58:40.720Z,99617.02
2019-06-08T17:01:07.422Z,99604.20
2019-06-08T17:03:34.867Z,99604.20
2019-06-08T17:06:01.682Z,99608.14
2019-06-08T17:08:29.480Z,99612.51
2019-06-08T17:10:56.074Z,99615.22
2019-06-08T17:13:23.148Z,99628.44
2019-06-08T17:15:49.853Z,99628.44
2019-06-08T17:18:16.383Z,99633.97
2019-06-08T17:20:43.880Z,99632.70
2019-06-08T17:23:11.302Z,99638.95
2019-06-08T17:25:38.754Z,99638.95
2019-06-08T17:28:06.789Z,99646.00
2019-06-08T17:30:35.453Z,99648.59
2019-06-08T17:33:02.312Z,99651.11
2019-06-08T17:35:28.900Z,99664.41
2019-06-08T17:37:55.499Z,99668.55
2019-06-08T17:40:22.323Z,99682.94
2019-06-08T17:42:48.787Z,99690.07
2019-06-08T17:45:15.932Z,99696.42
2019-06-08T17:47:42.837Z,99688.69
2019-06-08T17:50:10.905Z,99707.69
2019-06-08T17:52:38.799Z,99713.95
2019-06-08T17:55:06.382Z,99720.73
2019-06-08T17:57:43.511Z,99726.83
2019-06-08T18:00:01.741Z,99736.42
2019-06-08T18:02:31.203Z,99744.75
2019-06-08T18:04:57.954Z,99752.37
2019-06-08T18:07:24.780Z,99754.45
2019-06-08T18:09:51.512Z,99756.20
2019-06-08T18:12:18.715Z,99760.48
2019-06-08T18:14:47.829Z,99756.84
2019-06-08T18:17:14.160Z,99766.95
2019-06-08T18:19:43.639Z,99770.09
2019-06-08T18:22:15.409Z,99779.69
2019-06-08T18:24:40.887Z,99777.47
2019-06-08T18:27:07.757Z,99780.52
2019-06-08T18:29:34.625Z,99779.77
2019-06-08T18:32:01.618Z,99783.71
2019-06-08T18:34:28.981Z,99782.44
2019-06-08T18:36:57.867Z,99791.30
2019-06-08T18:39:27.354Z,99787.09
2019-06-08T18:41:54.233Z,99788.00
2019-06-08T18:44:21.011Z,99793.05
2019-06-08T18:46:48.254Z,99788.48
2019-06-08T18:49:15.181Z,99802.53
2019-06-08T18:51:42.797Z,99802.44
2019-06-08T18:54:14.634Z,99807.40
2019-06-08T18:56:41.830Z,99811.55
2019-06-08T18:59:07.879Z,99816.71
2019-06-08T19:01:34.614Z,99823.27
2019-06-08T19:04:01.309Z,99829.10
2019-06-08T19:06:28.173Z,99834.30
2019-06-08T19:08:54.984Z,99844.58
2019-06-08T19:11:23.067Z,99853.41
2019-06-08T19:13:52.035Z,99853.55
2019-06-08T19:16:19.256Z,99859.00
2019-06-08T19:18:49.815Z,99859.51
2019-06-08T19:21:17.681Z,99861.45
2019-06-08T19:23:44.886Z,99865.21
2019-06-08T19:26:13.311Z,99868.73
2019-06-08T19:28:44.972Z,99871.73
2019-06-08T19:31:10.355Z,99876.94
2019-06-08T19:33:37.462Z,99879.02
2019-06-08T19:36:07.642Z,99889.57
2019-06-08T19:38:34.002Z,99881.63
2019-06-08T19:41:00.472Z,99883.31
2019-06-08T19:43:27.777Z,99894.63
2019-06-08T19:45:57.825Z,99890.39
2019-06-08T19:48:27.404Z,99895.95
2019-06-08T19:50:54.356Z,99899.38
2019-06-08T19:53:21.210Z,99906.62
2019-06-08T19:55:52.035Z,99905.65
2019-06-08T19:58:18.062Z,99907.38
2019-06-08T20:00:50.846Z,99911.64
2019-06-08T20:03:13.888Z,99914.00
2019-06-08T20:05:41.239Z,99919.61
2019-06-08T20:08:08.426Z,99919.48
2019-06-08T20:10:35.324Z,99928.44
2019-06-08T20:13:03.886Z,99926.30
2019-06-08T20:15:30.589Z,99934.05
2019-06-08T20:17:57.620Z,99940.86
2019-06-08T20:20:24.276Z,99941.06
2019-06-08T20:22:53.483Z,99941.84
2019-06-08T20:25:19.957Z,99940.88
2019-06-08T20:27:49.770Z,99943.81
2019-06-08T20:30:17.422Z,99943.81
2019-06-08T20:32:44.498Z,99942.16
2019-06-08T20:35:11.369Z,99945.94
2019-06-08T20:37:38.152Z,99950.30
2019-06-08T20:40:11.193Z,99952.05
2019-06-08T20:42:33.915Z,99954.44
2019-06-08T20:45:01.811Z,99950.95
2019-06-08T20:47:28.316Z,99956.30
2019-06-08T20:49:54.991Z,99962.47
2019-06-08T20:52:22.934Z,99969.16
2019-06-08T20:54:51.786Z,99974.88
2019-06-08T20:57:18.494Z,99965.11
2019-06-08T20:59:45.682Z,99971.92
2019-06-08T21:02:12.724Z,99976.59
2019-06-08T21:04:39.865Z,99979.61
2019-06-08T21:07:08.191Z,99980.52
2019-06-08T21:09:37.131Z,99991.66
2019-06-08T21:12:04.123Z,99988.67
2019-06-08T21:14:30.738Z,99997.16
2019-06-08T21:16:59.137Z,99998.70
2019-06-08T21:19:27.941Z,99994.41
2019-06-08T21:21:55.050Z,99995.27
2019-06-08T21:24:22.727Z,99996.86
2019-06-08T21:26:52.533Z,99998.83
2019-06-08T21:29:17.918Z,100002.45
2019-06-08T21:31:49.013Z,99998.75
2019-06-08T21:34:13.826Z,99998.52
2019-06-08T21:36:40.512Z,100000.21
2019-06-08T21:39:08.271Z,100001.59
2019-06-08T21:41:37.165Z,99996.55
2019-06-08T21:44:04.947Z,100003.83
2019-06-08T21:46:31.852Z,100000.59
2019-06-08T21:49:00.478Z,100006.92
2019-06-08T21:51:26.994Z,100012.19
2019-06-08T21:53:54.176Z,100010.72
2019-06-08T21:56:20.883Z,100013.85
2019-06-08T21:58:49.776Z,100018.24
2019-06-08T22:01:17.904Z,100019.59
2019-06-08T22:03:47.051Z,100029.53
2019-06-08T22:06:13.410Z,100022.25
2019-06-08T22:08:40.042Z,100033.89
2019-06-08T22:11:08.548Z,100027.53
2019-06-08T22:13:37.452Z,100031.42
2019-06-08T22:16:04.676Z,100028.75
2019-06-08T22:18:31.535Z,100036.50
2019-06-08T22:20:59.796Z,100031.17
2019-06-08T22:23:26.623Z,100036.06
2019-06-08T22:25:53.525Z,100034.55
2019-06-08T22:28:21.473Z,100044.81
2019-06-08T22:30:48.369Z,100043.84
2019-06-08T22:33:17.567Z,100050.39
2019-06-08T22:35:44.981Z,100061.46
2019-06-08T22:38:11.479Z,100060.67
2019-06-08T22:40:38.666Z,100070.42
2019-06-08T22:43:07.822Z,100073.81
2019-06-08T22:45:34.023Z,100073.50
2019-06-08T22:48:02.201Z,100086.82
2019-06-08T22:50:29.287Z,100097.63
2019-06-08T22:52:59.310Z,100092.95
2019-06-08T22:55:24.793Z,100090.65
2019-06-08T22:57:53.793Z,100090.80
2019-06-08T23:00:22.762Z,100088.64
2019-06-08T23:02:48.800Z,100086.28
2019-06-08T23:05:15.454Z,100087.13
2019-06-08T23:07:41.968Z,100081.92
2019-06-08T23:10:09.751Z,100079.91
2019-06-08T23:12:38.189Z,100074.05
2019-06-08T23:15:07.802Z,100072.20
2019-06-08T23:17:34.841Z,100069.22
2019-06-08T23:20:01.991Z,100065.53
2019-06-08T23:22:28.919Z,100063.21
2019-06-08T23:24:59.535Z,100069.98
2019-06-08T23:27:27.139Z,100063.94
2019-06-08T23:29:54.264Z,100058.56
2019-06-08T23:32:20.865Z,100063.28
2019-06-08T23:34:49.056Z,100060.61
2019-06-08T23:37:18.282Z,100060.32
2019-06-08T23:39:47.094Z,100061.00
2019-06-08T23:42:13.836Z,100062.84
2019-06-08T23:44:40.450Z,100062.36
2019-06-08T23:47:08.143Z,100068.60
2019-06-08T23:49:34.976Z,100061.72
2019-06-08T23:52:02.760Z,100059.03
2019-06-08T23:54:30.462Z,100056.69
2019-06-08T23:57:00.080Z,100061.58
2019-06-08T23:59:27.992Z,100069.16
